createdAt,value
2022-07-29T00:01:05.094Z,98260.63
2022-07-29T00:03:32.552Z,98261.44
2022-07-29T00:06:00.792Z,98257.69
2022-07-29T00:08:29.822Z,98270.59
2022-07-29T00:10:57.235Z,98267.06
2022-07-29T00:13:31.846Z,98275.00
2022-07-29T00:16:04.424Z,98275.63
2022-07-29T00:18:32.754Z,98272.69
2022-07-29T00:21:00.469Z,98279.75
2022-07-29T00:23:30.649Z,98272.28
2022-07-29T00:25:58.189Z,98279.34
2022-07-29T00:28:25.615Z,98277.69
2022-07-29T00:30:53.015Z,98275.00
2022-07-29T00:33:20.436Z,98280.59
2022-07-29T00:35:47.934Z,98279.34
2022-07-29T00:38:16.761Z,98278.91
2022-07-29T00:40:46.054Z,98276.63
2022-07-29T00:43:14.403Z,98279.34
2022-07-29T00:45:41.820Z,98274.34
2022-07-29T00:48:09.247Z,98270.44
2022-07-29T00:50:37.450Z,98271.88
2022-07-29T00:53:07.058Z,98278.53
2022-07-29T00:55:34.105Z,98278.09
2022-07-29T00:58:03.101Z,98282.69
2022-07-29T01:00:30.955Z,98279.78
2022-07-29T01:02:58.782Z,98274.38
2022-07-29T01:05:48.065Z,98278.72
2022-07-29T01:08:17.135Z,98287.00
2022-07-29T01:10:46.134Z,98287.94
2022-07-29T01:13:15.842Z,98275.75
2022-07-29T01:15:49.192Z,98289.59
2022-07-29T01:18:22.112Z,98291.59
2022-07-29T01:21:07.091Z,98291.59
2022-07-29T01:23:49.250Z,98286.91
2022-07-29T01:26:53.571Z,98293.81
2022-07-29T01:29:36.092Z,98293.69
2022-07-29T01:32:09.853Z,98290.97
2022-07-29T01:35:03.134Z,98290.13
2022-07-29T01:37:39.149Z,98289.13
2022-07-29T01:40:12.945Z,98287.22
2022-07-29T01:42:45.185Z,98287.22
2022-07-29T01:45:18.151Z,98287.84
2022-07-29T01:47:49.728Z,98285.75
2022-07-29T01:50:19.531Z,98279.53
2022-07-29T01:52:53.700Z,98284.31
2022-07-29T01:55:23.446Z,98287.22
2022-07-29T01:57:50.890Z,98292.56
2022-07-29T02:00:20.083Z,98288.44
2022-07-29T02:02:49.436Z,98288.06
2022-07-29T02:05:20.128Z,98285.31
2022-07-29T02:07:49.552Z,98285.72
2022-07-29T02:10:19.871Z,98282.00
2022-07-29T02:12:55.288Z,98289.28
2022-07-29T02:15:26.753Z,98288.69
2022-07-29T02:17:59.549Z,98285.31
2022-07-29T02:20:28.907Z,98283.47
2022-07-29T02:22:58.431Z,98273.53
2022-07-29T02:25:26.198Z,98280.38
2022-07-29T02:28:06.424Z,98282.66
2022-07-29T02:30:37.770Z,98283.03
2022-07-29T02:33:06.922Z,98273.72
2022-07-29T02:35:35.130Z,98272.50
2022-07-29T02:38:04.369Z,98271.22
2022-07-29T02:40:31.796Z,98274.09
2022-07-29T02:43:00.504Z,98268.94
2022-07-29T02:45:28.779Z,98270.38
2022-07-29T02:48:00.889Z,98267.28
2022-07-29T02:50:33.943Z,98277.66
2022-07-29T02:53:06.640Z,98268.53
2022-07-29T02:55:38.087Z,98269.16
2022-07-29T02:58:14.590Z,98261.06
2022-07-29T03:00:43.976Z,98262.09
2022-07-29T03:03:16.147Z,98258.56
2022-07-29T03:05:43.569Z,98258.75
2022-07-29T03:08:13.190Z,98260.41
2022-07-29T03:10:43.725Z,98262.69
2022-07-29T03:13:12.546Z,98247.75
2022-07-29T03:15:40.400Z,98252.94
2022-07-29T03:18:08.442Z,98250.88
2022-07-29T03:20:38.916Z,98249.19
2022-07-29T03:23:06.314Z,98242.75
2022-07-29T03:25:33.878Z,98244.44
2022-07-29T03:28:01.351Z,98246.09
2022-07-29T03:30:28.770Z,98244.88
2022-07-29T03:32:56.638Z,98249.00
2022-07-29T03:35:26.355Z,98254.78
2022-07-29T03:37:55.241Z,98248.16
2022-07-29T03:40:27.677Z,98238.19
2022-07-29T03:42:56.680Z,98245.47
2022-07-29T03:45:25.502Z,98230.09
2022-07-29T03:48:00.696Z,98242.97
2022-07-29T03:50:29.791Z,98224.91
2022-07-29T03:52:59.313Z,98228.03
2022-07-29T03:55:27.667Z,98228.66
2022-07-29T03:57:56.820Z,98226.16
2022-07-29T04:00:26.703Z,98230.09
2022-07-29T04:02:54.345Z,98219.72
2022-07-29T04:05:21.838Z,98234.88
2022-07-29T04:07:49.524Z,98234.47
2022-07-29T04:10:30.037Z,98229.91
2022-07-29T04:12:59.932Z,98230.53
2022-07-29T04:15:31.425Z,98224.63
2022-07-29T04:17:59.596Z,98233.63
2022-07-29T04:20:27.012Z,98226.13
2022-07-29T04:22:54.403Z,98229.88
2022-07-29T04:25:23.353Z,98229.44
2022-07-29T04:27:51.254Z,98224.63
2022-07-29T04:30:18.743Z,98222.13
2022-07-29T04:32:46.112Z,98226.06
2022-07-29T04:35:13.514Z,98215.31
2022-07-29T04:37:40.901Z,98216.81
2022-07-29T04:40:09.404Z,98213.50
2022-07-29T04:42:46.536Z,98210.78
2022-07-29T04:45:15.307Z,98214.72
2022-07-29T04:47:43.573Z,98219.09
2022-07-29T04:50:11.085Z,98218.25
2022-07-29T04:52:38.672Z,98223.06
2022-07-29T04:55:07.296Z,98208.94
2022-07-29T04:57:34.682Z,98214.13
2022-07-29T05:00:04.442Z,98209.34
2022-07-29T05:02:32.125Z,98208.09
2022-07-29T05:04:59.593Z,98206.22
2022-07-29T05:07:27.043Z,98202.50
2022-07-29T05:09:54.608Z,98191.28
2022-07-29T05:12:21.979Z,98200.00
2022-07-29T05:14:49.367Z,98186.28
2022-07-29T05:17:18.175Z,98191.50
2022-07-29T05:19:45.615Z,98195.03
2022-07-29T05:22:12.958Z,98185.47
2022-07-29T05:24:40.373Z,98186.28
2022-07-29T05:27:07.778Z,98188.38
2022-07-29T05:29:44.539Z,98202.28
2022-07-29T05:32:13.602Z,98194.00
2022-07-29T05:34:50.700Z,98187.13
2022-07-29T05:37:20.000Z,98184.44
2022-07-29T05:39:50.610Z,98189.22
2022-07-29T05:42:24.650Z,98178.78
2022-07-29T05:44:52.053Z,98183.78
2022-07-29T05:47:19.661Z,98187.50
2022-07-29T05:49:48.671Z,98180.03
2022-07-29T05:52:16.338Z,98188.56
2022-07-29T05:54:43.962Z,98184.63
2022-07-29T05:57:17.325Z,98192.09
2022-07-29T05:59:44.793Z,98191.25
2022-07-29T06:02:12.353Z,98180.88
2022-07-29T06:04:39.828Z,98179.63
2022-07-29T06:07:08.798Z,98182.13
2022-07-29T06:09:36.573Z,98176.09
2022-07-29T06:12:04.971Z,98183.16
2022-07-29T06:14:32.423Z,98186.06
2022-07-29T06:16:59.885Z,98181.06
2022-07-29T06:19:27.278Z,98179.66
2022-07-29T06:21:54.814Z,98170.91
2022-07-29T06:24:23.661Z,98171.94
2022-07-29T06:26:51.061Z,98178.56
2022-07-29T06:29:18.517Z,98180.00
2022-07-29T06:31:45.977Z,98170.47
2022-07-29T06:34:13.678Z,98172.28
2022-07-29T06:36:41.631Z,98165.47
2022-07-29T06:39:09.946Z,98182.09
2022-07-29T06:41:40.605Z,98165.06
2022-07-29T06:44:10.593Z,98168.59
2022-07-29T06:46:38.068Z,98163.00
2022-07-29T06:49:05.864Z,98185.41
2022-07-29T06:51:33.410Z,98175.66
2022-07-29T06:54:02.759Z,98180.25
2022-07-29T06:56:31.670Z,98196.25
2022-07-29T06:59:01.615Z,98192.50
2022-07-29T07:01:29.121Z,98183.16
2022-07-29T07:03:56.717Z,98183.97
2022-07-29T07:06:24.253Z,98176.06
2022-07-29T07:08:51.741Z,98190.19
2022-07-29T07:11:19.395Z,98190.66
2022-07-29T07:13:46.910Z,98185.03
2022-07-29T07:16:16.218Z,98180.88
2022-07-29T07:18:43.774Z,98183.97
2022-07-29T07:21:11.314Z,98177.13
2022-07-29T07:23:39.001Z,98176.50
2022-07-29T07:26:06.517Z,98164.69
2022-07-29T07:28:34.032Z,98162.72
2022-07-29T07:31:01.537Z,98170.75
2022-07-29T07:33:30.470Z,98177.66
2022-07-29T07:35:57.991Z,98178.72
2022-07-29T07:38:25.441Z,98169.19
2022-07-29T07:40:52.972Z,98177.69
2022-07-29T07:43:20.426Z,98180.00
2022-07-29T07:45:50.120Z,98178.13
2022-07-29T07:48:17.704Z,98172.28
2022-07-29T07:50:46.886Z,98179.94
2022-07-29T07:53:14.524Z,98182.50
2022-07-29T07:56:09.387Z,98184.75
2022-07-29T07:58:32.236Z,98185.00
2022-07-29T08:00:59.778Z,98189.16
2022-07-29T08:03:27.352Z,98186.69
2022-07-29T08:05:56.454Z,98176.28
2022-07-29T08:08:24.018Z,98168.16
2022-07-29T08:10:51.545Z,98178.72
2022-07-29T08:13:19.687Z,98177.88
2022-07-29T08:15:47.263Z,98177.69
2022-07-29T08:18:14.806Z,98165.63
2022-07-29T08:20:42.325Z,98177.03
2022-07-29T08:23:11.255Z,98170.59
2022-07-29T08:25:39.004Z,98164.81
2022-07-29T08:28:07.834Z,98170.84
2022-07-29T08:30:35.712Z,98179.38
2022-07-29T08:33:03.720Z,98177.84
2022-07-29T08:35:35.538Z,98179.69
2022-07-29T08:38:04.506Z,98181.59
2022-07-29T08:40:33.529Z,98181.41
2022-07-29T08:43:06.477Z,98179.94
2022-07-29T08:45:44.817Z,98179.34
2022-07-29T08:48:17.419Z,98185.41
2022-07-29T08:50:46.289Z,98184.75
2022-07-29T08:53:16.004Z,98181.41
2022-07-29T08:55:46.860Z,98194.06
2022-07-29T08:58:15.780Z,98189.13
2022-07-29T09:00:46.153Z,98179.75
2022-07-29T09:03:18.250Z,98178.91
2022-07-29T09:05:48.251Z,98180.78
2022-07-29T09:08:16.937Z,98181.78
2022-07-29T09:10:46.088Z,98180.72
2022-07-29T09:13:13.630Z,98188.19
2022-07-29T09:15:41.540Z,98182.19
2022-07-29T09:18:19.483Z,98183.25
2022-07-29T09:20:57.963Z,98176.97
2022-07-29T09:23:25.462Z,98177.94
2022-07-29T09:25:54.568Z,98182.59
2022-07-29T09:28:22.215Z,98178.41
2022-07-29T09:30:53.822Z,98181.09
2022-07-29T09:33:22.080Z,98191.47
2022-07-29T09:36:00.383Z,98186.72
2022-07-29T09:38:29.449Z,98190.88
2022-07-29T09:41:05.506Z,98189.63
2022-07-29T09:43:35.207Z,98192.50
2022-07-29T09:46:12.659Z,98197.94
2022-07-29T09:48:40.598Z,98193.41
2022-07-29T09:51:21.424Z,98196.09
2022-07-29T09:53:50.774Z,98206.41
2022-07-29T09:56:39.034Z,98196.84
2022-07-29T09:59:07.338Z,98193.28
2022-07-29T10:01:34.931Z,98212.03
2022-07-29T10:04:02.693Z,98209.75
2022-07-29T10:06:30.325Z,98207.44
2022-07-29T10:09:08.574Z,98203.06
2022-07-29T10:11:49.546Z,98213.50
2022-07-29T10:14:18.063Z,98207.31
2022-07-29T10:16:45.933Z,98201.41
2022-07-29T10:19:14.689Z,98204.13
2022-07-29T10:21:42.322Z,98201.16
2022-07-29T10:24:14.648Z,98204.66
2022-07-29T10:26:44.854Z,98199.91
2022-07-29T10:29:12.422Z,98191.91
2022-07-29T10:31:49.099Z,98200.09
2022-07-29T10:34:29.493Z,98183.81
2022-07-29T10:37:08.925Z,98196.38
2022-07-29T10:39:49.866Z,98202.06
2022-07-29T10:42:33.443Z,98198.06
2022-07-29T10:45:04.947Z,98198.94
2022-07-29T10:47:35.418Z,98195.19
2022-07-29T10:50:05.898Z,98187.28
2022-07-29T10:52:57.168Z,98188.75
2022-07-29T10:55:36.302Z,98178.53
2022-07-29T10:58:19.180Z,98180.38
2022-07-29T11:00:49.549Z,98186.44
2022-07-29T11:03:49.707Z,98190.59
2022-07-29T11:06:27.038Z,98186.00
2022-07-29T11:09:17.717Z,98186.19
2022-07-29T11:11:51.541Z,98187.94
2022-07-29T11:14:56.965Z,98175.72
2022-07-29T11:17:26.080Z,98181.69
2022-07-29T11:20:32.831Z,98162.59
2022-07-29T11:23:00.461Z,98164.28
2022-07-29T11:28:25.087Z,98165.59
2022-07-29T11:30:55.211Z,98171.41
2022-07-29T11:36:28.196Z,98171.25
2022-07-29T11:42:44.449Z,98158.53
2022-07-29T11:45:44.312Z,98150.19
2022-07-29T11:48:28.982Z,98161.94
2022-07-29T11:50:50.619Z,98164.75
2022-07-29T11:53:18.806Z,98166.06
2022-07-29T11:55:51.095Z,98162.66
2022-07-29T11:58:25.058Z,98167.16
2022-07-29T12:00:55.687Z,98155.72
2022-07-29T12:06:17.428Z,98156.31
2022-07-29T12:07:01.291Z,98174.72
2022-07-29T12:08:45.897Z,98148.41
2022-07-29T12:11:21.155Z,98149.25
2022-07-29T12:13:49.802Z,98147.91
2022-07-29T12:16:26.068Z,98147.03
2022-07-29T12:19:03.058Z,98146.16
2022-07-29T12:21:30.984Z,98153.81
2022-07-29T12:24:05.685Z,98153.72
2022-07-29T12:26:37.244Z,98149.97
2022-07-29T12:29:11.344Z,98154.06
2022-07-29T12:31:45.334Z,98160.16
2022-07-29T12:34:16.896Z,98161.75
2022-07-29T12:36:44.783Z,98161.94
2022-07-29T12:39:12.697Z,98158.88
2022-07-29T12:41:40.198Z,98155.97
2022-07-29T12:44:07.740Z,98157.56
2022-07-29T12:46:35.196Z,98149.06
2022-07-29T12:49:04.111Z,98147.69
2022-07-29T12:51:34.547Z,98144.56
2022-07-29T12:54:08.006Z,98151.78
2022-07-29T12:56:44.087Z,98144.94
2022-07-29T12:59:17.503Z,98149.59
2022-07-29T13:01:45.479Z,98147.09
2022-07-29T13:04:25.628Z,98149.59
2022-07-29T13:07:01.932Z,98145.91
2022-07-29T13:09:39.326Z,98150.31
2022-07-29T13:12:09.013Z,98148.88
2022-07-29T13:14:37.095Z,98150.09
2022-07-29T13:17:07.670Z,98144.28
2022-07-29T13:19:39.321Z,98138.44
2022-07-29T13:22:08.630Z,98142.09
2022-07-29T13:24:47.267Z,98146.81
2022-07-29T13:27:15.586Z,98153.75
2022-07-29T13:29:43.043Z,98147.69
2022-07-29T13:32:10.500Z,98163.66
2022-07-29T13:34:38.035Z,98155.19
2022-07-29T13:37:05.661Z,98146.00
2022-07-29T13:39:34.553Z,98151.69
2022-07-29T13:42:02.749Z,98155.00
2022-07-29T13:44:30.230Z,98155.13
2022-07-29T13:46:57.683Z,98156.25
2022-07-29T13:49:25.100Z,98163.66
2022-07-29T13:51:52.556Z,98156.00
2022-07-29T13:54:19.946Z,98152.38
2022-07-29T13:56:48.836Z,98156.41
2022-07-29T13:59:16.239Z,98159.31
2022-07-29T14:01:44.114Z,98149.78
2022-07-29T14:04:13.023Z,98151.44
2022-07-29T14:06:40.656Z,98145.84
2022-07-29T14:09:08.717Z,98147.50
2022-07-29T14:11:36.414Z,98143.31
2022-07-29T14:14:05.567Z,98145.13
2022-07-29T14:16:33.001Z,98148.16
2022-07-29T14:19:01.132Z,98155.88
2022-07-29T14:21:28.688Z,98154.66
2022-07-29T14:23:58.109Z,98151.03
2022-07-29T14:26:25.792Z,98158.59
2022-07-29T14:28:54.982Z,98157.47
2022-07-29T14:31:23.942Z,98159.03
2022-07-29T14:33:51.430Z,98156.13
2022-07-29T14:36:18.867Z,98153.88
2022-07-29T14:38:46.252Z,98153.88
2022-07-29T14:41:14.982Z,98151.13
2022-07-29T14:43:42.418Z,98147.34
2022-07-29T14:46:09.995Z,98156.59
2022-07-29T14:48:39.043Z,98147.84
2022-07-29T14:51:06.494Z,98154.03
2022-07-29T14:53:33.919Z,98149.88
2022-07-29T14:56:20.872Z,98150.28
2022-07-29T14:58:50.154Z,98159.50
2022-07-29T15:01:19.295Z,98156.28
2022-07-29T15:03:48.386Z,98148.63
2022-07-29T15:06:15.929Z,98148.69
2022-07-29T15:08:43.502Z,98152.09
2022-07-29T15:11:11.016Z,98142.22
2022-07-29T15:13:38.846Z,98150.19
2022-07-29T15:16:07.247Z,98148.63
2022-07-29T15:18:34.795Z,98147.03
2022-07-29T15:21:03.767Z,98150.72
2022-07-29T15:23:31.332Z,98149.13
2022-07-29T15:25:58.740Z,98143.91
2022-07-29T15:28:26.206Z,98148.72
2022-07-29T15:30:53.574Z,98148.22
2022-07-29T15:33:20.978Z,98142.38
2022-07-29T15:35:48.404Z,98150.94
2022-07-29T15:38:17.579Z,98156.00
2022-07-29T15:40:45.166Z,98154.72
2022-07-29T15:43:12.645Z,98149.31
2022-07-29T15:45:42.048Z,98161.50
2022-07-29T15:48:14.522Z,98151.50
2022-07-29T15:50:42.387Z,98149.88
2022-07-29T15:53:14.529Z,98156.34
2022-07-29T15:55:43.341Z,98158.34
2022-07-29T15:58:12.014Z,98150.44
2022-07-29T16:00:39.700Z,98154.72
2022-07-29T16:03:07.162Z,98142.63
2022-07-29T16:05:34.679Z,98159.25
2022-07-29T16:08:02.132Z,98161.00
2022-07-29T16:10:29.636Z,98158.59
2022-07-29T16:12:58.564Z,98159.75
2022-07-29T16:15:26.317Z,98159.84
2022-07-29T16:17:53.694Z,98161.34
2022-07-29T16:20:21.380Z,98164.84
2022-07-29T16:22:50.115Z,98170.72
2022-07-29T16:25:17.732Z,98169.22
2022-07-29T16:27:45.231Z,98172.25
2022-07-29T16:30:14.476Z,98171.06
2022-07-29T16:32:42.004Z,98173.06
2022-07-29T16:35:09.982Z,98170.00
2022-07-29T16:37:37.442Z,98166.84
2022-07-29T16:40:06.570Z,98174.03
2022-07-29T16:42:46.748Z,98170.81
2022-07-29T16:45:16.716Z,98168.81
2022-07-29T16:47:45.926Z,98173.16
2022-07-29T16:50:13.330Z,98164.25
2022-07-29T16:52:41.014Z,98178.56
2022-07-29T16:55:08.807Z,98174.03
2022-07-29T16:57:36.212Z,98173.44
2022-07-29T17:00:04.422Z,98177.34
2022-07-29T17:02:33.220Z,98182.59
2022-07-29T17:05:00.597Z,98179.09
2022-07-29T17:07:29.824Z,98182.25
2022-07-29T17:10:00.674Z,98179.97
2022-07-29T17:12:31.161Z,98172.50
2022-07-29T17:14:58.825Z,98171.75
2022-07-29T17:17:38.990Z,98178.03
2022-07-29T17:20:17.619Z,98169.28
2022-07-29T17:22:45.175Z,98179.78
2022-07-29T17:25:12.675Z,98182.22
2022-07-29T17:27:48.765Z,98183.28
2022-07-29T17:30:16.358Z,98185.53
2022-07-29T17:32:43.828Z,98179.38
2022-07-29T17:35:11.307Z,98183.13
2022-07-29T17:37:40.216Z,98180.22
2022-07-29T17:40:09.056Z,98182.69
2022-07-29T17:42:36.572Z,98181.63
2022-07-29T17:45:04.596Z,98187.44
2022-07-29T17:47:32.051Z,98181.88
2022-07-29T17:49:59.511Z,98184.78
2022-07-29T17:52:26.964Z,98177.94
2022-07-29T17:54:55.777Z,98176.28
2022-07-29T17:57:23.178Z,98172.28
2022-07-29T17:59:50.728Z,98177.53
2022-07-29T18:02:18.261Z,98175.22
2022-07-29T18:04:45.868Z,98181.09
2022-07-29T18:07:18.094Z,98173.81
2022-07-29T18:09:45.694Z,98173.81
2022-07-29T18:12:14.683Z,98170.88
2022-07-29T18:14:42.328Z,98175.22
2022-07-29T18:17:09.710Z,98172.75
2022-07-29T18:19:37.095Z,98169.47
2022-07-29T18:22:05.075Z,98169.81
2022-07-29T18:24:33.204Z,98157.16
2022-07-29T18:27:00.967Z,98164.66
2022-07-29T18:29:30.101Z,98167.97
2022-07-29T18:31:57.605Z,98167.53
2022-07-29T18:34:25.026Z,98163.59
2022-07-29T18:36:52.488Z,98165.50
2022-07-29T18:39:21.236Z,98167.34
2022-07-29T18:41:51.009Z,98166.50
2022-07-29T18:44:19.504Z,98176.72
2022-07-29T18:46:51.688Z,98175.63
2022-07-29T18:49:19.642Z,98182.97
2022-07-29T18:51:47.239Z,98176.91
2022-07-29T18:54:14.980Z,98181.97
2022-07-29T18:56:42.335Z,98177.38
2022-07-29T18:59:09.769Z,98188.00
2022-07-29T19:01:37.341Z,98185.31
2022-07-29T19:04:06.301Z,98178.63
2022-07-29T19:06:33.739Z,98180.50
2022-07-29T19:09:01.242Z,98175.91
2022-07-29T19:11:28.683Z,98179.09
2022-07-29T19:13:56.068Z,98170.34
2022-07-29T19:16:23.533Z,98184.25
2022-07-29T19:18:50.991Z,98172.91
2022-07-29T19:21:19.955Z,98175.13
2022-07-29T19:24:05.895Z,98175.31
2022-07-29T19:26:35.179Z,98178.69
2022-07-29T19:29:02.625Z,98173.25
2022-07-29T19:31:30.566Z,98179.97
2022-07-29T19:33:58.020Z,98177.22
2022-07-29T19:36:26.860Z,98176.19
2022-07-29T19:38:54.258Z,98172.03
2022-07-29T19:41:21.649Z,98173.34
2022-07-29T19:43:50.864Z,98178.91
2022-07-29T19:46:20.567Z,98172.47
2022-07-29T19:48:48.159Z,98173.50
2022-07-29T19:51:15.594Z,98176.66
2022-07-29T19:53:44.628Z,98169.19
2022-07-29T19:56:12.043Z,98173.09
2022-07-29T19:58:39.416Z,98172.06
2022-07-29T20:01:10.254Z,98172.53
2022-07-29T20:03:37.959Z,98172.66
2022-07-29T20:06:05.612Z,98174.13
2022-07-29T20:08:33.005Z,98169.50
2022-07-29T20:11:02.139Z,98169.31
2022-07-29T20:13:29.555Z,98160.56
2022-07-29T20:15:57.010Z,98170.13
2022-07-29T20:18:24.384Z,98164.88
2022-07-29T20:20:52.038Z,98168.59
2022-07-29T20:23:19.599Z,98159.38
2022-07-29T20:25:47.019Z,98159.28
2022-07-29T20:28:15.840Z,98158.81
2022-07-29T20:30:43.227Z,98159.13
2022-07-29T20:33:10.769Z,98160.34
2022-07-29T20:35:38.146Z,98166.25
2022-07-29T20:38:05.531Z,98157.19
2022-07-29T20:40:32.938Z,98161.94
2022-07-29T20:43:00.338Z,98157.97
2022-07-29T20:45:29.151Z,98159.09
2022-07-29T20:47:56.622Z,98157.97
2022-07-29T20:50:24.362Z,98156.72
2022-07-29T20:52:52.568Z,98154.47
2022-07-29T20:55:20.407Z,98154.66
2022-07-29T20:57:47.797Z,98156.63
2022-07-29T21:00:15.559Z,98151.19
2022-07-29T21:02:44.496Z,98156.91
2022-07-29T21:05:11.961Z,98144.94
2022-07-29T21:07:39.358Z,98151.78
2022-07-29T21:10:07.519Z,98152.81
2022-07-29T21:12:34.932Z,98155.47
2022-07-29T21:15:02.324Z,98162.09
2022-07-29T21:17:29.697Z,98153.34
2022-07-29T21:19:58.487Z,98156.78
2022-07-29T21:22:25.882Z,98153.69
2022-07-29T21:24:53.275Z,98155.94
2022-07-29T21:27:21.737Z,98147.28
2022-07-29T21:29:49.887Z,98139.78
2022-07-29T21:32:27.623Z,98144.97
2022-07-29T21:34:59.077Z,98144.84
2022-07-29T21:37:26.476Z,98149.72
2022-07-29T21:39:53.854Z,98137.00
2022-07-29T21:42:21.314Z,98150.16
2022-07-29T21:44:48.871Z,98149.97
2022-07-29T21:47:16.262Z,98147.03
2022-07-29T21:49:43.764Z,98150.63
2022-07-29T21:52:14.162Z,98144.31
2022-07-29T21:54:42.386Z,98152.22
2022-07-29T21:57:09.914Z,98145.38
2022-07-29T21:59:37.315Z,98153.66
2022-07-29T22:02:04.709Z,98153.72
2022-07-29T22:04:32.389Z,98156.59
2022-07-29T22:07:00.022Z,98155.25
2022-07-29T22:09:29.075Z,98152.09
2022-07-29T22:11:56.450Z,98152.50
2022-07-29T22:14:23.928Z,98150.34
2022-07-29T22:16:52.992Z,98157.28
2022-07-29T22:19:27.519Z,98161.25
2022-07-29T22:21:55.045Z,98157.47
2022-07-29T22:24:22.453Z,98159.81
2022-07-29T22:26:51.277Z,98163.28
2022-07-29T22:29:18.699Z,98153.28
2022-07-29T22:31:46.106Z,98161.69
2022-07-29T22:34:13.586Z,98168.28
2022-07-29T22:36:41.080Z,98164.56
2022-07-29T22:39:08.481Z,98161.63
2022-07-29T22:41:35.931Z,98165.19
2022-07-29T22:44:05.051Z,98165.22
2022-07-29T22:46:33.544Z,98163.69
2022-07-29T22:49:01.190Z,98163.97
2022-07-29T22:51:28.599Z,98165.81
2022-07-29T22:53:55.969Z,98163.56
2022-07-29T22:56:23.700Z,98159.00
2022-07-29T22:58:51.180Z,98164.38
2022-07-29T23:01:35.824Z,98171.78
2022-07-29T23:04:05.895Z,98168.69
2022-07-29T23:06:36.060Z,98171.22
2022-07-29T23:09:03.489Z,98175.41
2022-07-29T23:11:30.899Z,98172.44
2022-07-29T23:13:58.499Z,98175.75
2022-07-29T23:16:27.393Z,98178.69
2022-07-29T23:18:55.569Z,98174.91
2022-07-29T23:21:22.994Z,98178.47
2022-07-29T23:23:50.876Z,98186.38
2022-07-29T23:26:18.359Z,98175.38
2022-07-29T23:28:46.006Z,98184.75
2022-07-29T23:31:13.875Z,98178.13
2022-07-29T23:33:42.703Z,98184.97
2022-07-29T23:36:10.226Z,98192.50
2022-07-29T23:38:39.181Z,98184.59
2022-07-29T23:41:06.658Z,98189.38
2022-07-29T23:43:34.047Z,98187.72
2022-07-29T23:46:01.475Z,98185.81
2022-07-29T23:48:28.878Z,98186.66
2022-07-29T23:50:57.745Z,98191.22
2022-07-29T23:53:25.135Z,98184.19
2022-07-29T23:55:52.516Z,98191.25
2022-07-29T23:58:19.967Z,98187.53
